Kalamazoo, MI

12:37 AM EST on December 23, 2014 (GMT -0500)
Kalamazoo-Battle Creek International | Change Station
CLOSE
Current Station
Airport
Location: Kalamazoo,
Elevation: 873 ft
Nearby Weather Stations

Elev 873 ft 42.23 °N, 85.55 °W | Updated 44 minutes ago

Overcast
Overcast
38 °F
Feels Like 32 °F
N
8
Wind Variable Wind from East

Today
High -- | Low -- °F
--% Chance of Precip.
Yesterday
High -- | Low -- °F
Precip. -- in
8:08 AM 5:13 PM
New Moon, 2% visible
Pressure 29.77 in
Visibility 4.0 miles
Clouds Mostly Cloudy 3500 ft
Overcast 4600 ft
Windchill 32 °F
Dew Point 35 °F
Humidity 89%
Rainfall 0.09 in
Snow Depth Not available.
UV 0 out of 12
Pollen .10 out of 12
Air Quality Not available.
Flu Activity Not available.
METAR KAZO 230453Z AUTO 10007KT 4SM -RA BR BKN035 OVC046 03/02 A2974 RMK AO2 RAE11B30 SLP080 P0000 T00330017 400391033

More Conditions Fewer Conditions

Pressure 29.77 in
Visibility 4.0 miles
Clouds Mostly Cloudy 3500 ft
Overcast 4600 ft
Windchill 32 °F
Dew Point 35 °F
Humidity 89%
Rainfall 0.09 in
Snow Depth Not available.
UV 0 out of 12
Pollen .10 out of 12
Air Quality Not available.
Flu Activity Not available.
METAR KAZO 230453Z AUTO 10007KT 4SM -RA BR BKN035 OVC046 03/02 A2974 RMK AO2 RAE11B30 SLP080 P0000 T00330017 400391033

More Conditions Fewer Conditions

10-Day Weather Forecast

Almanac

Astronomy

Dec. 23, 2014 Rise Set
Actual Time
Civil Twilight
Nautical Twilight
Astronomical Twilight
Moon
Length of Visible Light
Length of Day
Tomorrow will be .
, % of the Moon is Illuminated

Today's Extremes

State Highs State Lows

Community

WunderPhotos

Upload Photos

1,779,786 photos uploaded!

WunderBlogs® & News

Nearby

Air Quality

  Air Quality AQ Index Pollutant
Not available.

Snow Depth

Station Depth Elevation

Earthquake Activity

City Distance Mag. Time & Date
Minimum magnitude displayed is 2.5.

Coastal Water Temperatures

Place Temperature

Nearby Weather Stations